createdAt,value
2022-11-09T00:01:03.890Z,8.70
2022-11-09T00:03:32.111Z,8.70
2022-11-09T00:06:02.156Z,8.70
2022-11-09T00:08:30.465Z,8.70
2022-11-09T00:11:04.511Z,8.70
2022-11-09T00:13:32.621Z,8.70
2022-11-09T00:16:02.212Z,8.60
2022-11-09T00:18:30.587Z,8.60
2022-11-09T00:20:58.830Z,8.60
2022-11-09T00:23:28.195Z,8.60
2022-11-09T00:25:56.223Z,8.70
2022-11-09T00:28:24.240Z,8.50
2022-11-09T00:30:52.169Z,8.50
2022-11-09T00:33:20.402Z,8.50
2022-11-09T00:35:48.680Z,8.40
2022-11-09T00:38:16.646Z,8.40
2022-11-09T00:40:45.945Z,8.40
2022-11-09T00:43:14.034Z,8.50
2022-11-09T00:45:42.199Z,8.50
2022-11-09T00:48:11.379Z,8.50
2022-11-09T00:50:39.674Z,8.70
2022-11-09T00:53:07.691Z,8.50
2022-11-09T00:55:35.661Z,8.50
2022-11-09T00:58:05.046Z,8.50
2022-11-09T01:00:33.096Z,8.50
2022-11-09T01:03:01.104Z,8.60
2022-11-09T01:05:29.380Z,8.60
2022-11-09T01:07:57.391Z,8.60
2022-11-09T01:10:25.412Z,8.70
2022-11-09T01:12:53.840Z,8.60
2022-11-09T01:15:23.390Z,8.50
2022-11-09T01:17:51.625Z,8.60
2022-11-09T01:20:19.589Z,8.50
2022-11-09T01:22:47.663Z,8.50
2022-11-09T01:25:15.752Z,8.50
2022-11-09T01:27:43.891Z,8.50
2022-11-09T01:30:12.938Z,8.40
2022-11-09T01:32:42.286Z,8.40
2022-11-09T01:35:10.580Z,8.30
2022-11-09T01:37:38.589Z,8.30
2022-11-09T01:40:07.784Z,8.40
2022-11-09T01:42:37.336Z,8.30
2022-11-09T01:45:32.344Z,8.30
2022-11-09T01:48:05.543Z,8.40
2022-11-09T01:50:39.615Z,8.30
2022-11-09T01:53:11.317Z,8.30
2022-11-09T01:55:39.319Z,8.20
2022-11-09T01:58:10.113Z,8.30
2022-11-09T02:00:42.111Z,8.40
2022-11-09T02:03:16.574Z,8.40
2022-11-09T02:05:45.746Z,8.40
2022-11-09T02:08:17.540Z,8.30
2022-11-09T02:10:53.477Z,8.30
2022-11-09T02:13:24.528Z,8.40
2022-11-09T02:15:52.906Z,8.60
2022-11-09T02:18:23.178Z,8.50
2022-11-09T02:20:53.965Z,8.40
2022-11-09T02:23:23.144Z,8.40
2022-11-09T02:25:54.805Z,8.40
2022-11-09T02:28:23.646Z,8.40
2022-11-09T02:30:54.708Z,8.40
2022-11-09T02:33:22.888Z,8.40
2022-11-09T02:35:52.456Z,8.50
2022-11-09T02:38:20.504Z,8.30
2022-11-09T02:40:52.583Z,8.30
2022-11-09T02:43:21.334Z,8.40
2022-11-09T02:45:49.549Z,8.40
2022-11-09T02:48:17.584Z,8.40
2022-11-09T02:50:45.561Z,8.30
2022-11-09T02:53:14.896Z,8.30
2022-11-09T02:55:42.839Z,8.30
2022-11-09T02:58:11.004Z,8.40
2022-11-09T03:00:39.052Z,8.60
2022-11-09T03:03:07.393Z,8.50
2022-11-09T03:05:35.428Z,8.50
2022-11-09T03:08:03.569Z,8.60
2022-11-09T03:10:32.936Z,8.50
2022-11-09T03:13:00.952Z,8.50
2022-11-09T03:15:28.973Z,8.40
2022-11-09T03:17:57.888Z,8.50
2022-11-09T03:20:25.899Z,8.50
2022-11-09T03:22:57.738Z,8.50
2022-11-09T03:25:25.965Z,8.60
2022-11-09T03:27:59.498Z,8.60
2022-11-09T03:30:27.580Z,8.60
2022-11-09T03:32:59.413Z,8.60
2022-11-09T03:35:27.600Z,8.70
2022-11-09T03:37:55.600Z,8.70
2022-11-09T03:40:23.807Z,8.70
2022-11-09T03:42:51.780Z,8.70
2022-11-09T03:45:21.182Z,8.60
2022-11-09T03:47:49.510Z,8.60
2022-11-09T03:50:18.862Z,8.60
2022-11-09T03:52:47.863Z,8.60
2022-11-09T03:55:16.308Z,8.60
2022-11-09T03:57:45.868Z,8.60
2022-11-09T04:00:16.552Z,8.60
2022-11-09T04:02:46.365Z,8.70
2022-11-09T04:05:15.260Z,8.70
2022-11-09T04:07:48.723Z,8.70
2022-11-09T04:10:16.943Z,8.70
2022-11-09T04:12:45.182Z,8.80
2022-11-09T04:15:13.880Z,8.80
2022-11-09T04:17:41.903Z,8.80
2022-11-09T04:20:11.802Z,8.80
2022-11-09T04:22:39.822Z,8.80
2022-11-09T04:25:08.369Z,8.80
2022-11-09T04:27:36.428Z,8.80
2022-11-09T04:30:04.638Z,8.90
2022-11-09T04:32:32.669Z,8.90
2022-11-09T04:35:00.826Z,8.90
2022-11-09T04:37:30.143Z,8.90
2022-11-09T04:39:58.133Z,8.90
2022-11-09T04:42:26.146Z,9.00
2022-11-09T04:44:54.143Z,9.00
2022-11-09T04:47:22.183Z,9.20
2022-11-09T04:49:50.234Z,9.30
2022-11-09T04:52:18.221Z,9.30
2022-11-09T04:54:47.549Z,9.20
2022-11-09T04:57:15.492Z,9.10
2022-11-09T04:59:43.489Z,9.10
2022-11-09T05:02:11.459Z,9.10
2022-11-09T05:04:39.502Z,9.10
2022-11-09T05:07:07.600Z,9.20
2022-11-09T05:09:35.786Z,9.10
2022-11-09T05:12:05.346Z,9.10
2022-11-09T05:14:33.450Z,9.10
2022-11-09T05:17:01.499Z,9.10
2022-11-09T05:19:29.460Z,9.20
2022-11-09T05:22:17.461Z,9.20
2022-11-09T05:24:44.423Z,9.20
2022-11-09T05:27:13.934Z,9.30
2022-11-09T05:29:41.972Z,9.10
2022-11-09T05:32:09.987Z,9.20
2022-11-09T05:34:38.001Z,9.10
2022-11-09T05:37:06.020Z,9.10
2022-11-09T05:39:34.839Z,9.00
2022-11-09T05:42:02.846Z,9.10
2022-11-09T05:44:32.203Z,9.00
2022-11-09T05:47:00.187Z,9.10
2022-11-09T05:49:28.195Z,9.10
2022-11-09T05:51:56.237Z,9.00
2022-11-09T05:54:24.299Z,9.10
2022-11-09T05:56:52.305Z,9.10
2022-11-09T05:59:20.272Z,9.30
2022-11-09T06:01:49.725Z,9.20
2022-11-09T06:04:17.745Z,9.20
2022-11-09T06:06:45.761Z,9.10
2022-11-09T06:09:13.811Z,9.10
2022-11-09T06:11:41.850Z,9.20
2022-11-09T06:14:09.789Z,9.30
2022-11-09T06:16:37.940Z,9.40
2022-11-09T06:19:07.258Z,9.20
2022-11-09T06:21:35.227Z,9.20
2022-11-09T06:24:03.217Z,9.20
2022-11-09T06:26:31.229Z,9.20
2022-11-09T06:28:59.198Z,9.10
2022-11-09T06:31:27.178Z,9.10
2022-11-09T06:33:55.198Z,9.20
2022-11-09T06:36:24.774Z,9.20
2022-11-09T06:38:54.043Z,9.20
2022-11-09T06:41:22.136Z,9.30
2022-11-09T06:43:50.141Z,9.30
2022-11-09T06:46:18.310Z,9.20
2022-11-09T06:48:50.603Z,9.30
2022-11-09T06:51:21.389Z,9.30
2022-11-09T06:53:50.931Z,9.40
2022-11-09T06:56:18.938Z,9.40
2022-11-09T06:58:46.980Z,9.40
2022-11-09T07:01:18.916Z,9.50
2022-11-09T07:03:47.008Z,9.50
2022-11-09T07:06:15.090Z,9.60
2022-11-09T07:08:43.110Z,9.60
2022-11-09T07:11:16.128Z,9.50
2022-11-09T07:13:44.166Z,9.50
2022-11-09T07:16:12.944Z,9.60
2022-11-09T07:18:40.983Z,9.50
2022-11-09T07:21:13.989Z,9.50
2022-11-09T07:23:42.644Z,9.50
2022-11-09T07:26:12.645Z,9.50
2022-11-09T07:28:40.789Z,9.50
2022-11-09T07:31:09.288Z,9.60
2022-11-09T07:33:37.817Z,9.60
2022-11-09T07:36:06.840Z,9.50
2022-11-09T07:38:34.832Z,9.50
2022-11-09T07:41:03.332Z,9.70
2022-11-09T07:43:32.632Z,9.70
2022-11-09T07:46:03.711Z,9.80
2022-11-09T07:48:31.869Z,9.90
2022-11-09T07:51:02.540Z,10.00
2022-11-09T07:53:30.751Z,10.10
2022-11-09T07:55:59.660Z,10.10
2022-11-09T07:58:28.186Z,10.30
2022-11-09T08:00:58.340Z,10.20
2022-11-09T08:03:26.483Z,10.20
2022-11-09T08:05:54.484Z,10.40
2022-11-09T08:08:22.480Z,10.30
2022-11-09T08:10:52.440Z,10.50
2022-11-09T08:13:21.493Z,10.60
2022-11-09T08:15:49.708Z,10.50
2022-11-09T08:18:21.073Z,10.60
2022-11-09T08:20:49.703Z,10.80
2022-11-09T08:23:20.978Z,10.60
2022-11-09T08:25:50.748Z,10.60
2022-11-09T08:28:19.112Z,10.70
2022-11-09T08:30:55.150Z,10.80
2022-11-09T08:33:24.692Z,10.80
2022-11-09T08:35:53.468Z,10.90
2022-11-09T08:38:22.112Z,10.90
2022-11-09T08:40:50.373Z,11.10
2022-11-09T08:43:18.377Z,11.10
2022-11-09T08:45:46.427Z,11.10
2022-11-09T08:48:14.560Z,11.00
2022-11-09T08:50:44.109Z,10.90
2022-11-09T08:53:12.512Z,10.80
2022-11-09T08:55:40.841Z,11.00
2022-11-09T08:58:08.803Z,11.00
2022-11-09T09:00:37.235Z,11.00
2022-11-09T09:03:06.326Z,11.00
2022-11-09T09:05:35.203Z,11.20
2022-11-09T09:08:06.143Z,11.30
2022-11-09T09:10:36.150Z,11.40
2022-11-09T09:13:05.052Z,11.50
2022-11-09T09:15:33.438Z,11.60
2022-11-09T09:18:02.036Z,11.70
2022-11-09T09:20:30.038Z,11.70
2022-11-09T09:22:59.481Z,11.70
2022-11-09T09:25:29.256Z,11.80
2022-11-09T09:27:57.248Z,11.70
2022-11-09T09:30:25.217Z,11.70
2022-11-09T09:32:53.221Z,11.80
2022-11-09T09:35:21.224Z,11.80
2022-11-09T09:37:49.222Z,11.80
2022-11-09T09:40:25.830Z,11.90
2022-11-09T09:42:56.076Z,11.90
2022-11-09T09:45:27.203Z,12.10
2022-11-09T09:48:01.010Z,12.30
2022-11-09T09:50:32.470Z,12.60
2022-11-09T09:53:23.092Z,13.00
2022-11-09T09:55:57.092Z,13.40
2022-11-09T09:58:28.628Z,14.10
2022-11-09T10:01:01.113Z,14.70
2022-11-09T10:03:29.188Z,15.30
2022-11-09T10:06:05.944Z,15.60
2022-11-09T10:08:46.711Z,15.70
2022-11-09T10:11:25.940Z,15.90
2022-11-09T10:14:36.457Z,16.10
2022-11-09T10:17:13.096Z,16.40
2022-11-09T10:19:54.000Z,17.50
2022-11-09T10:22:27.151Z,18.40
2022-11-09T10:25:20.801Z,18.50
2022-11-09T10:27:52.857Z,18.50
2022-11-09T10:30:24.179Z,19.20
2022-11-09T10:32:55.951Z,19.90
2022-11-09T10:35:30.047Z,20.30
2022-11-09T10:37:58.299Z,20.90
2022-11-09T10:40:31.548Z,21.00
2022-11-09T10:43:02.759Z,20.90
2022-11-09T10:45:34.479Z,20.10
2022-11-09T10:48:03.560Z,19.40
2022-11-09T10:50:35.042Z,18.50
2022-11-09T10:53:11.992Z,18.00
2022-11-09T10:55:40.165Z,17.70
2022-11-09T10:58:23.810Z,17.30
2022-11-09T11:01:13.129Z,17.00
2022-11-09T11:03:42.554Z,16.80
2022-11-09T11:06:17.203Z,17.00
2022-11-09T11:08:47.003Z,17.30
2022-11-09T11:11:34.414Z,17.40
2022-11-09T11:14:22.490Z,17.40
2022-11-09T11:16:53.763Z,17.20
2022-11-09T11:19:35.429Z,16.80
2022-11-09T11:22:23.856Z,16.50
2022-11-09T11:24:57.224Z,16.20
2022-11-09T11:27:31.155Z,16.00
2022-11-09T11:30:06.943Z,15.90
2022-11-09T11:32:36.362Z,15.80
2022-11-09T11:35:06.429Z,15.80
2022-11-09T11:37:49.836Z,15.60
2022-11-09T11:40:23.348Z,15.50
2022-11-09T11:43:08.041Z,15.40
2022-11-09T11:45:41.880Z,15.30
2022-11-09T11:48:37.581Z,15.30
2022-11-09T11:51:12.559Z,15.30
2022-11-09T11:53:55.868Z,15.20
2022-11-09T11:56:28.279Z,15.20
2022-11-09T11:59:18.839Z,15.10
2022-11-09T12:02:02.537Z,15.20
2022-11-09T12:04:56.663Z,15.20
2022-11-09T12:07:35.422Z,15.40
2022-11-09T12:10:21.007Z,15.20
2022-11-09T12:12:58.176Z,15.20
2022-11-09T12:15:42.875Z,15.20
2022-11-09T12:18:23.200Z,15.10
2022-11-09T12:20:59.304Z,15.10
2022-11-09T12:23:43.884Z,15.10
2022-11-09T12:26:24.150Z,15.10
2022-11-09T12:29:08.402Z,15.20
2022-11-09T12:31:50.501Z,15.10
2022-11-09T12:34:25.640Z,15.20
2022-11-09T12:36:57.881Z,15.20
2022-11-09T12:39:32.842Z,15.40
2022-11-09T12:42:05.580Z,15.20
2022-11-09T12:44:38.110Z,15.30
2022-11-09T12:47:11.212Z,15.20
2022-11-09T12:49:42.050Z,15.10
2022-11-09T12:52:15.168Z,15.00
2022-11-09T12:54:46.197Z,15.00
2022-11-09T12:57:18.221Z,15.00
2022-11-09T12:59:53.947Z,15.10
2022-11-09T13:02:33.308Z,15.00
2022-11-09T13:05:03.009Z,15.10
2022-11-09T13:07:50.951Z,15.10
2022-11-09T13:10:31.489Z,15.10
2022-11-09T13:13:21.196Z,15.20
2022-11-09T13:16:21.466Z,15.10
2022-11-09T13:18:52.333Z,15.10
2022-11-09T13:21:38.024Z,15.20
2022-11-09T13:24:56.025Z,15.10
2022-11-09T13:27:43.669Z,15.20
2022-11-09T13:30:44.713Z,15.10
2022-11-09T13:33:24.462Z,15.10
2022-11-09T13:36:15.121Z,15.10
2022-11-09T13:38:43.479Z,15.00
2022-11-09T13:41:42.886Z,15.00
2022-11-09T13:44:23.674Z,15.00
2022-11-09T13:46:53.767Z,15.00
2022-11-09T13:49:48.766Z,15.10
2022-11-09T13:52:43.437Z,15.00
2022-11-09T13:55:27.005Z,14.90
2022-11-09T13:57:57.051Z,14.90
2022-11-09T14:00:27.402Z,14.80
2022-11-09T14:02:57.519Z,14.80
2022-11-09T14:05:27.954Z,14.80
2022-11-09T14:07:56.674Z,14.80
2022-11-09T14:10:45.365Z,15.00
2022-11-09T14:13:41.960Z,14.80
2022-11-09T14:16:26.000Z,14.70
2022-11-09T14:19:07.501Z,14.70
2022-11-09T14:21:44.084Z,14.80
2022-11-09T14:24:23.247Z,14.60
2022-11-09T14:27:02.716Z,14.50
2022-11-09T14:29:33.171Z,14.50
2022-11-09T14:32:17.134Z,14.50
2022-11-09T14:34:45.190Z,14.40
2022-11-09T14:37:14.319Z,14.40
2022-11-09T14:39:42.508Z,14.30
2022-11-09T14:42:18.825Z,14.30
2022-11-09T14:44:47.819Z,14.20
2022-11-09T14:47:20.106Z,14.30
2022-11-09T14:49:49.176Z,14.20
2022-11-09T14:52:22.366Z,14.20
2022-11-09T14:54:51.007Z,14.20
2022-11-09T14:59:47.088Z,14.20
2022-11-09T15:02:19.209Z,14.10
2022-11-09T15:04:58.915Z,14.20
2022-11-09T15:07:29.552Z,14.10
2022-11-09T15:10:00.204Z,14.20
2022-11-09T15:12:30.624Z,14.10
2022-11-09T15:15:01.548Z,14.00
2022-11-09T15:17:33.120Z,13.90
2022-11-09T15:20:03.162Z,13.80
2022-11-09T15:22:50.665Z,13.80
2022-11-09T15:25:31.181Z,13.80
2022-11-09T15:28:19.550Z,13.70
2022-11-09T15:30:49.902Z,13.70
2022-11-09T15:33:25.519Z,13.70
2022-11-09T15:35:55.546Z,13.70
2022-11-09T15:38:34.390Z,13.60
2022-11-09T15:41:03.181Z,13.60
2022-11-09T15:43:31.327Z,13.50
2022-11-09T15:46:01.448Z,13.50
2022-11-09T15:48:30.868Z,13.60
2022-11-09T15:50:59.107Z,13.40
2022-11-09T15:53:28.062Z,13.30
2022-11-09T15:55:56.152Z,13.30
2022-11-09T15:58:24.365Z,13.30
2022-11-09T16:00:52.884Z,13.30
2022-11-09T16:03:21.152Z,13.30
2022-11-09T16:05:50.628Z,13.30
2022-11-09T16:08:19.136Z,13.40
2022-11-09T16:10:47.728Z,13.30
2022-11-09T16:13:15.877Z,13.30
2022-11-09T16:15:43.926Z,13.20
2022-11-09T16:18:12.398Z,13.20
2022-11-09T16:20:41.015Z,13.10
2022-11-09T16:23:10.488Z,13.10
2022-11-09T16:25:38.674Z,13.10
2022-11-09T16:28:07.154Z,13.00
2022-11-09T16:30:35.218Z,13.00
2022-11-09T16:33:03.354Z,13.00
2022-11-09T16:35:31.693Z,12.90
2022-11-09T16:38:00.339Z,13.10
2022-11-09T16:40:31.847Z,12.90
2022-11-09T16:43:01.785Z,12.90
2022-11-09T16:45:33.390Z,12.80
2022-11-09T16:48:05.571Z,12.90
2022-11-09T16:50:33.741Z,12.80
2022-11-09T16:53:01.900Z,12.90
2022-11-09T16:55:31.437Z,12.80
2022-11-09T16:57:59.988Z,12.80
2022-11-09T17:00:48.740Z,12.80
2022-11-09T17:03:16.813Z,12.80
2022-11-09T17:05:45.410Z,12.80
2022-11-09T17:08:14.024Z,12.80
2022-11-09T17:10:44.848Z,12.80
2022-11-09T17:13:14.305Z,12.70
2022-11-09T17:15:42.980Z,12.70
2022-11-09T17:18:11.448Z,12.70
2022-11-09T17:20:43.781Z,12.70
2022-11-09T17:23:12.227Z,12.60
2022-11-09T17:25:40.794Z,12.60
2022-11-09T17:28:10.219Z,12.70
2022-11-09T17:30:41.853Z,12.70
2022-11-09T17:33:10.081Z,12.60
2022-11-09T17:35:38.175Z,12.60
2022-11-09T17:38:06.208Z,12.60
2022-11-09T17:40:34.334Z,12.60
2022-11-09T17:43:02.426Z,12.60
2022-11-09T17:45:32.313Z,12.60
2022-11-09T17:48:01.847Z,12.70
2022-11-09T17:50:29.933Z,12.70
2022-11-09T17:52:58.014Z,12.70
2022-11-09T17:55:26.247Z,12.70
2022-11-09T17:57:54.465Z,12.70
2022-11-09T18:00:24.416Z,12.70
2022-11-09T18:02:57.267Z,12.60
2022-11-09T18:05:25.320Z,12.60
2022-11-09T18:07:53.466Z,12.80
2022-11-09T18:10:21.536Z,12.60
2022-11-09T18:12:49.663Z,12.50
2022-11-09T18:15:17.821Z,12.50
2022-11-09T18:17:45.881Z,12.50
2022-11-09T18:20:15.975Z,12.50
2022-11-09T18:22:44.053Z,12.60
2022-11-09T18:25:12.836Z,12.40
2022-11-09T18:27:40.910Z,12.40
2022-11-09T18:30:10.411Z,12.50
2022-11-09T18:32:39.251Z,12.50
2022-11-09T18:35:08.093Z,12.50
2022-11-09T18:37:38.234Z,12.50
2022-11-09T18:40:08.078Z,12.40
2022-11-09T18:42:36.167Z,12.40
2022-11-09T18:45:04.593Z,12.40
2022-11-09T18:47:32.677Z,12.40
2022-11-09T18:50:00.911Z,12.40
2022-11-09T18:52:28.956Z,12.50
2022-11-09T18:54:58.545Z,12.50
2022-11-09T18:57:26.645Z,12.50
2022-11-09T18:59:54.779Z,12.40
2022-11-09T19:02:22.865Z,12.40
2022-11-09T19:04:51.009Z,12.40
2022-11-09T19:07:19.176Z,12.30
2022-11-09T19:09:47.331Z,12.30
2022-11-09T19:12:17.060Z,12.20
2022-11-09T19:14:45.198Z,12.20
2022-11-09T19:17:15.408Z,12.20
2022-11-09T19:19:43.902Z,12.20
2022-11-09T19:22:17.690Z,12.20
2022-11-09T19:24:45.920Z,12.20
2022-11-09T19:27:14.644Z,12.20
2022-11-09T19:29:44.179Z,12.20
2022-11-09T19:32:14.431Z,12.20
2022-11-09T19:34:43.612Z,12.20
2022-11-09T19:37:15.251Z,12.20
2022-11-09T19:39:48.878Z,12.20
2022-11-09T19:42:21.286Z,12.20
2022-11-09T19:44:56.055Z,12.00
2022-11-09T19:47:24.553Z,12.20
2022-11-09T19:50:06.287Z,12.20
2022-11-09T19:52:34.637Z,12.30
2022-11-09T19:55:05.703Z,12.30
2022-11-09T19:57:34.073Z,12.50
2022-11-09T20:00:05.253Z,12.30
2022-11-09T20:02:37.034Z,12.20
2022-11-09T20:05:06.039Z,12.20
2022-11-09T20:07:34.362Z,12.20
2022-11-09T20:10:08.989Z,12.20
2022-11-09T20:12:54.606Z,12.20
2022-11-09T20:15:26.486Z,12.10
2022-11-09T20:17:54.734Z,12.10
2022-11-09T20:20:25.895Z,12.20
2022-11-09T20:22:57.334Z,12.00
2022-11-09T20:25:28.232Z,12.10
2022-11-09T20:27:56.291Z,12.00
2022-11-09T20:30:25.844Z,12.10
2022-11-09T20:32:54.249Z,12.00
2022-11-09T20:35:22.440Z,12.10
2022-11-09T20:37:50.519Z,12.10
2022-11-09T20:40:18.785Z,12.10
2022-11-09T20:42:46.921Z,12.10
2022-11-09T20:45:15.750Z,12.10
2022-11-09T20:48:05.086Z,12.10
2022-11-09T20:50:35.069Z,12.10
2022-11-09T20:53:04.034Z,12.10
2022-11-09T20:55:32.697Z,12.10
2022-11-09T20:58:00.774Z,12.10
2022-11-09T21:00:28.955Z,12.00
2022-11-09T21:02:58.464Z,12.00
2022-11-09T21:05:26.862Z,12.00
2022-11-09T21:07:55.142Z,12.00
2022-11-09T21:10:23.901Z,12.00
2022-11-09T21:12:54.777Z,12.00
2022-11-09T21:15:23.217Z,12.00
2022-11-09T21:17:51.285Z,12.00
2022-11-09T21:20:20.692Z,12.00
2022-11-09T21:23:05.927Z,12.00
2022-11-09T21:25:51.456Z,11.90
2022-11-09T21:28:37.089Z,11.90
2022-11-09T21:31:05.181Z,11.90
2022-11-09T21:33:33.351Z,11.90
2022-11-09T21:36:09.125Z,11.90
2022-11-09T21:38:37.719Z,11.90
2022-11-09T21:41:22.322Z,11.90
2022-11-09T21:43:53.675Z,11.90
2022-11-09T21:46:24.095Z,12.00
2022-11-09T21:48:52.403Z,11.90
2022-11-09T21:51:21.939Z,12.00
2022-11-09T21:53:50.437Z,11.90
2022-11-09T21:56:18.604Z,11.90
2022-11-09T21:58:48.050Z,11.80
2022-11-09T22:01:18.123Z,11.80
2022-11-09T22:03:46.767Z,11.80
2022-11-09T22:06:15.610Z,11.80
2022-11-09T22:08:47.276Z,11.80
2022-11-09T22:11:17.449Z,11.70
2022-11-09T22:14:02.842Z,11.60
2022-11-09T22:16:33.203Z,11.50
2022-11-09T22:19:22.571Z,11.50
2022-11-09T22:21:50.698Z,11.40
2022-11-09T22:24:20.840Z,11.40
2022-11-09T22:26:48.993Z,11.40
2022-11-09T22:29:17.130Z,11.40
2022-11-09T22:31:45.158Z,11.30
2022-11-09T22:34:13.273Z,11.30
2022-11-09T22:36:41.292Z,11.40
2022-11-09T22:39:10.084Z,11.40
2022-11-09T22:41:40.388Z,11.40
2022-11-09T22:44:08.645Z,11.40
2022-11-09T22:46:36.648Z,11.40
2022-11-09T22:49:04.885Z,11.40
2022-11-09T22:51:33.309Z,11.40
2022-11-09T22:54:01.529Z,11.40
2022-11-09T22:56:29.617Z,11.60
2022-11-09T22:58:58.985Z,11.40
2022-11-09T23:01:27.319Z,11.50
2022-11-09T23:03:55.833Z,11.60
2022-11-09T23:06:24.663Z,11.50
2022-11-09T23:08:52.731Z,11.40
2022-11-09T23:11:23.013Z,11.30
2022-11-09T23:13:52.671Z,11.40
2022-11-09T23:16:23.647Z,11.40
2022-11-09T23:18:53.642Z,11.40
2022-11-09T23:21:23.548Z,11.60
2022-11-09T23:23:52.486Z,11.70
2022-11-09T23:26:21.225Z,11.50
2022-11-09T23:28:49.638Z,11.60
2022-11-09T23:31:24.082Z,11.60
2022-11-09T23:33:55.360Z,11.60
2022-11-09T23:36:24.155Z,11.50
2022-11-09T23:38:52.785Z,11.40
2022-11-09T23:41:22.317Z,11.40
2022-11-09T23:43:50.397Z,11.40
2022-11-09T23:46:19.134Z,11.40
2022-11-09T23:48:48.096Z,11.30
2022-11-09T23:51:18.823Z,11.30
2022-11-09T23:53:46.831Z,11.30
2022-11-09T23:56:14.963Z,11.30
2022-11-09T23:58:43.412Z,11.30
